sensor_id;sensor_type;location;lat;lon;timestamp;P1;durP1;ratioP1;P2;durP2;ratioP2
71048;SDS011;58704;53.358;-6.238;2023-06-14T00:00:35;34.47;;;26.03;;
71048;SDS011;58704;53.358;-6.238;2023-06-14T00:03:01;20.35;;;16.85;;
71048;SDS011;58704;53.358;-6.238;2023-06-14T00:05:28;18.83;;;13.77;;
71048;SDS011;58704;53.358;-6.238;2023-06-14T00:07:55;14.38;;;11.50;;
71048;SDS011;58704;53.358;-6.238;2023-06-14T00:10:20;16.47;;;10.87;;
71048;SDS011;58704;53.358;-6.238;2023-06-14T00:12:46;15.70;;;11.05;;
71048;SDS011;58704;53.358;-6.238;2023-06-14T00:15:11;15.07;;;11.10;;
71048;SDS011;58704;53.358;-6.238;2023-06-14T00:17:36;14.27;;;11.10;;
71048;SDS011;58704;53.358;-6.238;2023-06-14T00:20:04;14.00;;;11.30;;
71048;SDS011;58704;53.358;-6.238;2023-06-14T00:22:33;13.70;;;11.15;;
71048;SDS011;58704;53.358;-6.238;2023-06-14T00:24:59;16.15;;;10.80;;
71048;SDS011;58704;53.358;-6.238;2023-06-14T00:27:24;15.27;;;11.10;;
71048;SDS011;58704;53.358;-6.238;2023-06-14T00:29:50;14.05;;;11.00;;
71048;SDS011;58704;53.358;-6.238;2023-06-14T00:32:16;14.13;;;11.17;;
71048;SDS011;58704;53.358;-6.238;2023-06-14T00:34:42;16.60;;;11.82;;
71048;SDS011;58704;53.358;-6.238;2023-06-14T00:37:08;16.13;;;11.00;;
71048;SDS011;58704;53.358;-6.238;2023-06-14T00:39:33;14.97;;;11.37;;
71048;SDS011;58704;53.358;-6.238;2023-06-14T00:41:59;17.90;;;12.05;;
71048;SDS011;58704;53.358;-6.238;2023-06-14T00:44:24;16.53;;;11.57;;
71048;SDS011;58704;53.358;-6.238;2023-06-14T00:46:50;16.47;;;11.30;;
71048;SDS011;58704;53.358;-6.238;2023-06-14T00:49:16;15.70;;;11.20;;
71048;SDS011;58704;53.358;-6.238;2023-06-14T00:51:42;19.90;;;14.90;;
71048;SDS011;58704;53.358;-6.238;2023-06-14T00:54:08;31.60;;;23.43;;
71048;SDS011;58704;53.358;-6.238;2023-06-14T00:56:35;21.48;;;18.65;;
71048;SDS011;58704;53.358;-6.238;2023-06-14T00:59:01;25.67;;;17.10;;
71048;SDS011;58704;53.358;-6.238;2023-06-14T01:01:28;24.77;;;18.05;;
71048;SDS011;58704;53.358;-6.238;2023-06-14T01:03:53;29.93;;;22.37;;
71048;SDS011;58704;53.358;-6.238;2023-06-14T01:06:33;35.58;;;27.50;;
71048;SDS011;58704;53.358;-6.238;2023-06-14T01:09:44;40.77;;;32.27;;
71048;SDS011;58704;53.358;-6.238;2023-06-14T01:15:04;38.17;;;28.33;;
71048;SDS011;58704;53.358;-6.238;2023-06-14T01:17:30;28.90;;;22.80;;
71048;SDS011;58704;53.358;-6.238;2023-06-14T01:19:57;19.97;;;17.07;;
71048;SDS011;58704;53.358;-6.238;2023-06-14T01:22:26;24.98;;;15.55;;
71048;SDS011;58704;53.358;-6.238;2023-06-14T01:24:53;22.55;;;14.40;;
71048;SDS011;58704;53.358;-6.238;2023-06-14T01:27:22;17.73;;;13.60;;
71048;SDS011;58704;53.358;-6.238;2023-06-14T01:29:49;13.77;;;11.90;;
71048;SDS011;58704;53.358;-6.238;2023-06-14T01:32:16;17.30;;;12.27;;
71048;SDS011;58704;53.358;-6.238;2023-06-14T01:34:43;14.13;;;11.98;;
71048;SDS011;58704;53.358;-6.238;2023-06-14T01:37:08;17.53;;;13.03;;
71048;SDS011;58704;53.358;-6.238;2023-06-14T01:39:34;18.58;;;14.02;;
71048;SDS011;58704;53.358;-6.238;2023-06-14T01:42:00;18.17;;;14.30;;
71048;SDS011;58704;53.358;-6.238;2023-06-14T01:44:25;25.97;;;17.87;;
71048;SDS011;58704;53.358;-6.238;2023-06-14T01:46:52;24.48;;;18.67;;
71048;SDS011;58704;53.358;-6.238;2023-06-14T01:49:17;24.10;;;20.50;;
71048;SDS011;58704;53.358;-6.238;2023-06-14T01:51:43;26.83;;;19.00;;
71048;SDS011;58704;53.358;-6.238;2023-06-14T01:54:08;22.93;;;16.77;;
71048;SDS011;58704;53.358;-6.238;2023-06-14T01:56:33;19.37;;;14.17;;
71048;SDS011;58704;53.358;-6.238;2023-06-14T01:58:59;16.43;;;13.63;;
71048;SDS011;58704;53.358;-6.238;2023-06-14T02:01:24;17.13;;;13.43;;
71048;SDS011;58704;53.358;-6.238;2023-06-14T02:03:50;16.10;;;12.43;;
71048;SDS011;58704;53.358;-6.238;2023-06-14T02:06:16;18.20;;;12.27;;
71048;SDS011;58704;53.358;-6.238;2023-06-14T02:08:41;18.58;;;12.38;;
71048;SDS011;58704;53.358;-6.238;2023-06-14T02:11:07;14.60;;;12.10;;
71048;SDS011;58704;53.358;-6.238;2023-06-14T02:13:33;16.67;;;12.13;;
71048;SDS011;58704;53.358;-6.238;2023-06-14T02:15:59;16.03;;;11.63;;
71048;SDS011;58704;53.358;-6.238;2023-06-14T02:18:24;14.73;;;12.27;;
71048;SDS011;58704;53.358;-6.238;2023-06-14T02:20:50;15.80;;;11.50;;
71048;SDS011;58704;53.358;-6.238;2023-06-14T02:23:15;16.67;;;11.63;;
71048;SDS011;58704;53.358;-6.238;2023-06-14T02:25:41;14.30;;;11.43;;
71048;SDS011;58704;53.358;-6.238;2023-06-14T02:28:08;17.87;;;11.97;;
71048;SDS011;58704;53.358;-6.238;2023-06-14T02:30:33;19.43;;;12.20;;
71048;SDS011;58704;53.358;-6.238;2023-06-14T02:32:58;16.33;;;11.47;;
71048;SDS011;58704;53.358;-6.238;2023-06-14T02:35:24;18.07;;;11.43;;
71048;SDS011;58704;53.358;-6.238;2023-06-14T02:37:51;13.05;;;11.13;;
71048;SDS011;58704;53.358;-6.238;2023-06-14T02:40:17;15.10;;;10.73;;
71048;SDS011;58704;53.358;-6.238;2023-06-14T02:42:43;15.67;;;10.07;;
71048;SDS011;58704;53.358;-6.238;2023-06-14T02:45:08;13.33;;;10.37;;
71048;SDS011;58704;53.358;-6.238;2023-06-14T02:47:34;17.00;;;9.98;;
71048;SDS011;58704;53.358;-6.238;2023-06-14T02:49:59;12.07;;;9.67;;
71048;SDS011;58704;53.358;-6.238;2023-06-14T02:52:25;11.60;;;9.37;;
71048;SDS011;58704;53.358;-6.238;2023-06-14T02:54:50;13.93;;;9.23;;
71048;SDS011;58704;53.358;-6.238;2023-06-14T02:57:15;11.35;;;8.48;;
71048;SDS011;58704;53.358;-6.238;2023-06-14T02:59:41;10.77;;;8.80;;
71048;SDS011;58704;53.358;-6.238;2023-06-14T03:02:06;11.00;;;8.17;;
71048;SDS011;58704;53.358;-6.238;2023-06-14T03:04:32;10.00;;;8.00;;
71048;SDS011;58704;53.358;-6.238;2023-06-14T03:07:02;12.30;;;7.63;;
71048;SDS011;58704;53.358;-6.238;2023-06-14T03:09:34;12.15;;;8.48;;
71048;SDS011;58704;53.358;-6.238;2023-06-14T03:12:03;10.20;;;7.63;;
71048;SDS011;58704;53.358;-6.238;2023-06-14T03:14:28;9.45;;;7.72;;
71048;SDS011;58704;53.358;-6.238;2023-06-14T03:16:55;13.15;;;7.80;;
71048;SDS011;58704;53.358;-6.238;2023-06-14T03:19:22;10.77;;;8.17;;
71048;SDS011;58704;53.358;-6.238;2023-06-14T03:21:48;13.65;;;8.15;;
71048;SDS011;58704;53.358;-6.238;2023-06-14T03:24:14;9.60;;;8.50;;
71048;SDS011;58704;53.358;-6.238;2023-06-14T03:26:41;13.25;;;8.55;;
71048;SDS011;58704;53.358;-6.238;2023-06-14T03:29:06;10.20;;;8.33;;
71048;SDS011;58704;53.358;-6.238;2023-06-14T03:31:32;10.77;;;8.20;;
71048;SDS011;58704;53.358;-6.238;2023-06-14T03:33:58;11.73;;;8.50;;
71048;SDS011;58704;53.358;-6.238;2023-06-14T03:36:24;11.85;;;8.15;;
71048;SDS011;58704;53.358;-6.238;2023-06-14T03:38:50;11.65;;;8.27;;
71048;SDS011;58704;53.358;-6.238;2023-06-14T03:41:16;10.63;;;8.63;;
71048;SDS011;58704;53.358;-6.238;2023-06-14T03:43:41;9.80;;;7.70;;
71048;SDS011;58704;53.358;-6.238;2023-06-14T03:46:07;12.10;;;7.83;;
71048;SDS011;58704;53.358;-6.238;2023-06-14T03:48:32;11.27;;;7.97;;
71048;SDS011;58704;53.358;-6.238;2023-06-14T03:50:57;13.18;;;8.02;;
71048;SDS011;58704;53.358;-6.238;2023-06-14T03:53:23;12.07;;;8.23;;
71048;SDS011;58704;53.358;-6.238;2023-06-14T03:55:49;12.87;;;8.33;;
71048;SDS011;58704;53.358;-6.238;2023-06-14T03:58:15;9.90;;;8.18;;
71048;SDS011;58704;53.358;-6.238;2023-06-14T04:00:41;10.82;;;8.07;;
71048;SDS011;58704;53.358;-6.238;2023-06-14T04:03:06;10.37;;;8.03;;
71048;SDS011;58704;53.358;-6.238;2023-06-14T04:05:32;8.50;;;7.60;;
71048;SDS011;58704;53.358;-6.238;2023-06-14T04:07:57;9.27;;;7.57;;
71048;SDS011;58704;53.358;-6.238;2023-06-14T04:10:23;10.77;;;8.10;;
71048;SDS011;58704;53.358;-6.238;2023-06-14T04:12:49;12.45;;;8.77;;
71048;SDS011;58704;53.358;-6.238;2023-06-14T04:15:15;11.50;;;8.47;;
71048;SDS011;58704;53.358;-6.238;2023-06-14T04:17:41;9.60;;;8.20;;
71048;SDS011;58704;53.358;-6.238;2023-06-14T04:20:06;10.53;;;8.70;;
71048;SDS011;58704;53.358;-6.238;2023-06-14T04:22:34;10.05;;;9.00;;
71048;SDS011;58704;53.358;-6.238;2023-06-14T04:25:01;12.73;;;9.80;;
71048;SDS011;58704;53.358;-6.238;2023-06-14T04:27:26;14.27;;;8.93;;
71048;SDS011;58704;53.358;-6.238;2023-06-14T04:29:52;10.35;;;8.80;;
71048;SDS011;58704;53.358;-6.238;2023-06-14T04:32:23;12.53;;;9.13;;
71048;SDS011;58704;53.358;-6.238;2023-06-14T04:34:50;12.90;;;8.98;;
71048;SDS011;58704;53.358;-6.238;2023-06-14T04:37:18;11.27;;;8.43;;
71048;SDS011;58704;53.358;-6.238;2023-06-14T04:39:46;12.77;;;8.55;;
71048;SDS011;58704;53.358;-6.238;2023-06-14T04:42:12;13.68;;;8.27;;
71048;SDS011;58704;53.358;-6.238;2023-06-14T04:44:40;12.40;;;8.57;;
71048;SDS011;58704;53.358;-6.238;2023-06-14T04:47:06;10.88;;;8.20;;
71048;SDS011;58704;53.358;-6.238;2023-06-14T04:49:32;13.70;;;8.73;;
71048;SDS011;58704;53.358;-6.238;2023-06-14T04:51:59;13.00;;;8.87;;
71048;SDS011;58704;53.358;-6.238;2023-06-14T04:54:26;13.15;;;8.38;;
71048;SDS011;58704;53.358;-6.238;2023-06-14T04:56:52;11.10;;;8.63;;
71048;SDS011;58704;53.358;-6.238;2023-06-14T04:59:18;13.20;;;8.63;;
71048;SDS011;58704;53.358;-6.238;2023-06-14T05:01:44;13.70;;;7.63;;
71048;SDS011;58704;53.358;-6.238;2023-06-14T05:04:13;12.10;;;8.93;;
71048;SDS011;58704;53.358;-6.238;2023-06-14T05:06:40;17.75;;;9.60;;
71048;SDS011;58704;53.358;-6.238;2023-06-14T05:09:06;19.45;;;9.82;;
71048;SDS011;58704;53.358;-6.238;2023-06-14T05:11:32;12.13;;;8.30;;
71048;SDS011;58704;53.358;-6.238;2023-06-14T05:13:57;13.73;;;8.60;;
71048;SDS011;58704;53.358;-6.238;2023-06-14T05:16:23;12.90;;;8.07;;
71048;SDS011;58704;53.358;-6.238;2023-06-14T05:18:50;10.75;;;7.47;;
71048;SDS011;58704;53.358;-6.238;2023-06-14T05:21:17;9.60;;;7.25;;
71048;SDS011;58704;53.358;-6.238;2023-06-14T05:23:43;16.83;;;8.50;;
71048;SDS011;58704;53.358;-6.238;2023-06-14T05:26:10;12.27;;;7.65;;
71048;SDS011;58704;53.358;-6.238;2023-06-14T05:28:35;11.05;;;7.30;;
71048;SDS011;58704;53.358;-6.238;2023-06-14T05:31:01;11.33;;;7.40;;
71048;SDS011;58704;53.358;-6.238;2023-06-14T05:33:26;14.23;;;7.38;;
71048;SDS011;58704;53.358;-6.238;2023-06-14T05:35:52;11.43;;;7.70;;
71048;SDS011;58704;53.358;-6.238;2023-06-14T05:38:17;11.33;;;7.80;;
71048;SDS011;58704;53.358;-6.238;2023-06-14T05:40:43;13.02;;;7.97;;
71048;SDS011;58704;53.358;-6.238;2023-06-14T05:43:08;12.63;;;8.77;;
71048;SDS011;58704;53.358;-6.238;2023-06-14T05:45:34;13.27;;;8.43;;
71048;SDS011;58704;53.358;-6.238;2023-06-14T05:47:59;11.23;;;8.83;;
71048;SDS011;58704;53.358;-6.238;2023-06-14T05:50:25;12.82;;;8.50;;
71048;SDS011;58704;53.358;-6.238;2023-06-14T05:52:50;10.43;;;7.97;;
71048;SDS011;58704;53.358;-6.238;2023-06-14T05:55:16;15.13;;;8.10;;
71048;SDS011;58704;53.358;-6.238;2023-06-14T05:57:42;9.60;;;7.33;;
71048;SDS011;58704;53.358;-6.238;2023-06-14T06:00:07;11.53;;;7.10;;
71048;SDS011;58704;53.358;-6.238;2023-06-14T06:02:43;11.93;;;7.03;;
71048;SDS011;58704;53.358;-6.238;2023-06-14T06:05:09;9.32;;;6.82;;
71048;SDS011;58704;53.358;-6.238;2023-06-14T06:07:35;10.57;;;6.70;;
71048;SDS011;58704;53.358;-6.238;2023-06-14T06:10:02;13.27;;;6.60;;
71048;SDS011;58704;53.358;-6.238;2023-06-14T06:12:27;10.30;;;6.30;;
71048;SDS011;58704;53.358;-6.238;2023-06-14T06:14:53;8.80;;;6.53;;
71048;SDS011;58704;53.358;-6.238;2023-06-14T06:17:18;12.20;;;6.60;;
71048;SDS011;58704;53.358;-6.238;2023-06-14T06:19:44;9.68;;;5.93;;
71048;SDS011;58704;53.358;-6.238;2023-06-14T06:22:09;8.00;;;6.27;;
71048;SDS011;58704;53.358;-6.238;2023-06-14T06:24:35;8.90;;;6.07;;
71048;SDS011;58704;53.358;-6.238;2023-06-14T06:27:00;8.35;;;6.25;;
71048;SDS011;58704;53.358;-6.238;2023-06-14T06:29:27;8.90;;;5.95;;
71048;SDS011;58704;53.358;-6.238;2023-06-14T06:31:52;13.20;;;6.17;;
71048;SDS011;58704;53.358;-6.238;2023-06-14T06:34:18;7.90;;;5.33;;
71048;SDS011;58704;53.358;-6.238;2023-06-14T06:36:43;7.33;;;5.30;;
71048;SDS011;58704;53.358;-6.238;2023-06-14T06:39:08;8.90;;;5.83;;
71048;SDS011;58704;53.358;-6.238;2023-06-14T06:41:35;9.70;;;5.38;;
71048;SDS011;58704;53.358;-6.238;2023-06-14T06:44:04;9.13;;;5.45;;
71048;SDS011;58704;53.358;-6.238;2023-06-14T06:46:30;8.75;;;4.93;;
71048;SDS011;58704;53.358;-6.238;2023-06-14T06:48:55;8.23;;;5.43;;
71048;SDS011;58704;53.358;-6.238;2023-06-14T06:51:21;12.87;;;5.80;;
71048;SDS011;58704;53.358;-6.238;2023-06-14T06:53:51;8.17;;;5.37;;
71048;SDS011;58704;53.358;-6.238;2023-06-14T06:56:17;9.20;;;5.60;;
71048;SDS011;58704;53.358;-6.238;2023-06-14T06:58:42;10.47;;;5.47;;
71048;SDS011;58704;53.358;-6.238;2023-06-14T07:01:08;10.63;;;5.77;;
71048;SDS011;58704;53.358;-6.238;2023-06-14T07:03:34;12.37;;;6.23;;
71048;SDS011;58704;53.358;-6.238;2023-06-14T07:06:00;8.18;;;5.60;;
71048;SDS011;58704;53.358;-6.238;2023-06-14T07:08:25;14.43;;;5.60;;
71048;SDS011;58704;53.358;-6.238;2023-06-14T07:10:51;9.75;;;6.07;;
71048;SDS011;58704;53.358;-6.238;2023-06-14T07:13:17;11.13;;;5.70;;
71048;SDS011;58704;53.358;-6.238;2023-06-14T07:15:42;8.63;;;6.40;;
71048;SDS011;58704;53.358;-6.238;2023-06-14T07:18:08;14.43;;;6.47;;
71048;SDS011;58704;53.358;-6.238;2023-06-14T07:20:33;13.83;;;7.77;;
71048;SDS011;58704;53.358;-6.238;2023-06-14T07:22:59;13.82;;;8.77;;
71048;SDS011;58704;53.358;-6.238;2023-06-14T07:25:24;18.23;;;10.30;;
71048;SDS011;58704;53.358;-6.238;2023-06-14T07:27:50;13.33;;;7.40;;
71048;SDS011;58704;53.358;-6.238;2023-06-14T07:30:15;10.43;;;5.37;;
71048;SDS011;58704;53.358;-6.238;2023-06-14T07:32:41;11.60;;;5.23;;
71048;SDS011;58704;53.358;-6.238;2023-06-14T07:35:06;9.53;;;4.90;;
71048;SDS011;58704;53.358;-6.238;2023-06-14T07:37:32;11.05;;;4.80;;
71048;SDS011;58704;53.358;-6.238;2023-06-14T07:39:57;6.37;;;4.70;;
71048;SDS011;58704;53.358;-6.238;2023-06-14T07:42:23;8.40;;;5.43;;
71048;SDS011;58704;53.358;-6.238;2023-06-14T07:44:48;10.00;;;5.43;;
71048;SDS011;58704;53.358;-6.238;2023-06-14T07:47:15;7.13;;;5.00;;
71048;SDS011;58704;53.358;-6.238;2023-06-14T07:49:40;9.20;;;5.45;;
71048;SDS011;58704;53.358;-6.238;2023-06-14T07:52:06;6.70;;;4.93;;
71048;SDS011;58704;53.358;-6.238;2023-06-14T07:54:32;10.55;;;5.45;;
71048;SDS011;58704;53.358;-6.238;2023-06-14T07:56:57;9.43;;;4.90;;
71048;SDS011;58704;53.358;-6.238;2023-06-14T07:59:25;8.65;;;5.43;;
71048;SDS011;58704;53.358;-6.238;2023-06-14T08:01:51;9.53;;;4.43;;
71048;SDS011;58704;53.358;-6.238;2023-06-14T08:04:16;10.00;;;4.83;;
71048;SDS011;58704;53.358;-6.238;2023-06-14T08:06:42;7.40;;;4.97;;
71048;SDS011;58704;53.358;-6.238;2023-06-14T08:09:11;8.23;;;5.10;;
71048;SDS011;58704;53.358;-6.238;2023-06-14T08:11:37;7.10;;;4.90;;
71048;SDS011;58704;53.358;-6.238;2023-06-14T08:14:02;6.60;;;4.30;;
71048;SDS011;58704;53.358;-6.238;2023-06-14T08:16:27;8.80;;;4.83;;
71048;SDS011;58704;53.358;-6.238;2023-06-14T08:18:53;8.30;;;4.80;;
71048;SDS011;58704;53.358;-6.238;2023-06-14T08:21:18;8.47;;;4.87;;
71048;SDS011;58704;53.358;-6.238;2023-06-14T08:23:44;8.97;;;4.90;;
71048;SDS011;58704;53.358;-6.238;2023-06-14T08:26:09;7.43;;;5.10;;
71048;SDS011;58704;53.358;-6.238;2023-06-14T08:28:35;7.90;;;5.30;;
71048;SDS011;58704;53.358;-6.238;2023-06-14T08:31:01;7.38;;;4.95;;
71048;SDS011;58704;53.358;-6.238;2023-06-14T08:33:26;8.80;;;4.70;;
71048;SDS011;58704;53.358;-6.238;2023-06-14T08:35:52;9.63;;;4.93;;
71048;SDS011;58704;53.358;-6.238;2023-06-14T08:38:17;7.63;;;4.60;;
71048;SDS011;58704;53.358;-6.238;2023-06-14T08:40:42;6.78;;;4.70;;
71048;SDS011;58704;53.358;-6.238;2023-06-14T08:43:10;8.17;;;4.60;;
71048;SDS011;58704;53.358;-6.238;2023-06-14T08:45:35;7.50;;;4.45;;
71048;SDS011;58704;53.358;-6.238;2023-06-14T08:48:01;7.37;;;4.03;;
71048;SDS011;58704;53.358;-6.238;2023-06-14T08:50:27;7.30;;;4.28;;
71048;SDS011;58704;53.358;-6.238;2023-06-14T08:52:55;6.22;;;3.83;;
71048;SDS011;58704;53.358;-6.238;2023-06-14T08:55:25;6.93;;;4.07;;
71048;SDS011;58704;53.358;-6.238;2023-06-14T08:57:55;4.90;;;4.20;;
71048;SDS011;58704;53.358;-6.238;2023-06-14T09:00:25;4.95;;;3.90;;
71048;SDS011;58704;53.358;-6.238;2023-06-14T09:02:52;6.57;;;3.80;;
71048;SDS011;58704;53.358;-6.238;2023-06-14T09:05:23;5.55;;;3.83;;
71048;SDS011;58704;53.358;-6.238;2023-06-14T09:07:49;8.07;;;4.40;;
71048;SDS011;58704;53.358;-6.238;2023-06-14T09:10:15;11.30;;;3.92;;
71048;SDS011;58704;53.358;-6.238;2023-06-14T09:12:41;7.43;;;3.70;;
71048;SDS011;58704;53.358;-6.238;2023-06-14T09:15:07;9.37;;;3.70;;
71048;SDS011;58704;53.358;-6.238;2023-06-14T09:17:34;8.05;;;4.03;;
71048;SDS011;58704;53.358;-6.238;2023-06-14T09:20:01;9.07;;;3.30;;
71048;SDS011;58704;53.358;-6.238;2023-06-14T09:22:30;5.65;;;3.50;;
71048;SDS011;58704;53.358;-6.238;2023-06-14T09:24:56;9.27;;;4.17;;
71048;SDS011;58704;53.358;-6.238;2023-06-14T09:27:21;6.87;;;3.67;;
71048;SDS011;58704;53.358;-6.238;2023-06-14T09:29:46;8.77;;;3.25;;
71048;SDS011;58704;53.358;-6.238;2023-06-14T09:32:12;7.00;;;3.40;;
71048;SDS011;58704;53.358;-6.238;2023-06-14T09:34:37;10.37;;;3.70;;
71048;SDS011;58704;53.358;-6.238;2023-06-14T09:37:03;5.40;;;3.93;;
71048;SDS011;58704;53.358;-6.238;2023-06-14T09:39:28;6.85;;;3.60;;
71048;SDS011;58704;53.358;-6.238;2023-06-14T09:41:54;8.40;;;3.47;;
71048;SDS011;58704;53.358;-6.238;2023-06-14T09:44:19;7.33;;;3.70;;
71048;SDS011;58704;53.358;-6.238;2023-06-14T09:46:45;9.45;;;3.47;;
71048;SDS011;58704;53.358;-6.238;2023-06-14T09:49:10;7.77;;;3.37;;
71048;SDS011;58704;53.358;-6.238;2023-06-14T09:51:36;9.93;;;3.23;;
71048;SDS011;58704;53.358;-6.238;2023-06-14T09:54:08;17.67;;;3.58;;
71048;SDS011;58704;53.358;-6.238;2023-06-14T09:56:49;6.53;;;3.60;;
71048;SDS011;58704;53.358;-6.238;2023-06-14T09:59:16;5.68;;;3.60;;
71048;SDS011;58704;53.358;-6.238;2023-06-14T10:01:45;10.02;;;4.13;;
71048;SDS011;58704;53.358;-6.238;2023-06-14T10:04:12;9.80;;;3.67;;
71048;SDS011;58704;53.358;-6.238;2023-06-14T10:06:41;7.90;;;3.53;;
71048;SDS011;58704;53.358;-6.238;2023-06-14T10:09:09;6.75;;;3.47;;
71048;SDS011;58704;53.358;-6.238;2023-06-14T10:11:35;8.48;;;3.40;;
71048;SDS011;58704;53.358;-6.238;2023-06-14T10:14:01;7.13;;;3.80;;
71048;SDS011;58704;53.358;-6.238;2023-06-14T10:19:19;7.95;;;3.13;;
71048;SDS011;58704;53.358;-6.238;2023-06-14T10:24:32;9.48;;;3.95;;
71048;SDS011;58704;53.358;-6.238;2023-06-14T10:27:00;6.80;;;3.77;;
71048;SDS011;58704;53.358;-6.238;2023-06-14T10:29:26;8.20;;;3.40;;
71048;SDS011;58704;53.358;-6.238;2023-06-14T10:31:57;7.68;;;3.40;;
71048;SDS011;58704;53.358;-6.238;2023-06-14T10:34:27;7.47;;;3.15;;
71048;SDS011;58704;53.358;-6.238;2023-06-14T10:37:00;8.50;;;3.30;;
71048;SDS011;58704;53.358;-6.238;2023-06-14T10:39:27;13.07;;;3.90;;
71048;SDS011;58704;53.358;-6.238;2023-06-14T10:41:53;7.82;;;3.78;;
71048;SDS011;58704;53.358;-6.238;2023-06-14T10:46:54;6.13;;;3.70;;
71048;SDS011;58704;53.358;-6.238;2023-06-14T10:52:09;13.57;;;4.03;;
71048;SDS011;58704;53.358;-6.238;2023-06-14T10:57:30;10.10;;;3.95;;
71048;SDS011;58704;53.358;-6.238;2023-06-14T11:00:00;12.93;;;4.28;;
71048;SDS011;58704;53.358;-6.238;2023-06-14T11:04:58;7.43;;;3.80;;
71048;SDS011;58704;53.358;-6.238;2023-06-14T11:13:03;10.93;;;4.60;;
71048;SDS011;58704;53.358;-6.238;2023-06-14T11:15:29;11.47;;;4.63;;
71048;SDS011;58704;53.358;-6.238;2023-06-14T11:17:56;13.07;;;4.63;;
71048;SDS011;58704;53.358;-6.238;2023-06-14T11:20:26;10.18;;;4.20;;
71048;SDS011;58704;53.358;-6.238;2023-06-14T11:22:52;11.45;;;4.97;;
71048;SDS011;58704;53.358;-6.238;2023-06-14T11:25:18;13.40;;;4.70;;
71048;SDS011;58704;53.358;-6.238;2023-06-14T11:27:44;14.73;;;5.28;;
71048;SDS011;58704;53.358;-6.238;2023-06-14T11:30:10;13.00;;;5.00;;
71048;SDS011;58704;53.358;-6.238;2023-06-14T11:32:36;10.03;;;5.47;;
71048;SDS011;58704;53.358;-6.238;2023-06-14T11:35:04;12.00;;;4.45;;
71048;SDS011;58704;53.358;-6.238;2023-06-14T11:37:30;13.95;;;4.43;;
71048;SDS011;58704;53.358;-6.238;2023-06-14T11:39:58;10.93;;;4.45;;
71048;SDS011;58704;53.358;-6.238;2023-06-14T11:42:24;10.35;;;5.22;;
71048;SDS011;58704;53.358;-6.238;2023-06-14T11:44:52;17.53;;;4.87;;
71048;SDS011;58704;53.358;-6.238;2023-06-14T11:47:18;7.40;;;4.47;;
71048;SDS011;58704;53.358;-6.238;2023-06-14T11:49:44;7.72;;;4.20;;
71048;SDS011;58704;53.358;-6.238;2023-06-14T11:52:09;10.07;;;5.03;;
71048;SDS011;58704;53.358;-6.238;2023-06-14T11:54:36;11.10;;;4.25;;
71048;SDS011;58704;53.358;-6.238;2023-06-14T11:57:02;12.37;;;4.40;;
71048;SDS011;58704;53.358;-6.238;2023-06-14T11:59:27;7.60;;;4.90;;
71048;SDS011;58704;53.358;-6.238;2023-06-14T12:01:53;7.40;;;3.90;;
71048;SDS011;58704;53.358;-6.238;2023-06-14T12:04:28;8.03;;;4.67;;
71048;SDS011;58704;53.358;-6.238;2023-06-14T12:06:53;12.05;;;4.90;;
71048;SDS011;58704;53.358;-6.238;2023-06-14T12:09:20;8.82;;;4.13;;
71048;SDS011;58704;53.358;-6.238;2023-06-14T12:11:48;10.02;;;4.15;;
71048;SDS011;58704;53.358;-6.238;2023-06-14T12:14:13;12.13;;;4.47;;
71048;SDS011;58704;53.358;-6.238;2023-06-14T12:16:39;11.37;;;4.03;;
71048;SDS011;58704;53.358;-6.238;2023-06-14T12:21:37;8.10;;;3.88;;
71048;SDS011;58704;53.358;-6.238;2023-06-14T12:24:05;9.70;;;3.80;;
71048;SDS011;58704;53.358;-6.238;2023-06-14T12:26:31;10.77;;;3.67;;
71048;SDS011;58704;53.358;-6.238;2023-06-14T12:28:57;8.60;;;3.55;;
71048;SDS011;58704;53.358;-6.238;2023-06-14T12:31:22;10.00;;;3.60;;
71048;SDS011;58704;53.358;-6.238;2023-06-14T12:33:49;9.27;;;4.03;;
71048;SDS011;58704;53.358;-6.238;2023-06-14T12:36:15;10.60;;;4.65;;
71048;SDS011;58704;53.358;-6.238;2023-06-14T12:38:40;9.47;;;3.93;;
71048;SDS011;58704;53.358;-6.238;2023-06-14T12:41:06;11.02;;;4.20;;
71048;SDS011;58704;53.358;-6.238;2023-06-14T12:43:32;9.32;;;3.67;;
71048;SDS011;58704;53.358;-6.238;2023-06-14T12:45:58;5.83;;;3.20;;
71048;SDS011;58704;53.358;-6.238;2023-06-14T12:48:23;9.43;;;3.60;;
71048;SDS011;58704;53.358;-6.238;2023-06-14T12:50:48;8.57;;;3.90;;
71048;SDS011;58704;53.358;-6.238;2023-06-14T12:53:14;10.82;;;3.45;;
71048;SDS011;58704;53.358;-6.238;2023-06-14T12:55:39;9.00;;;3.93;;
71048;SDS011;58704;53.358;-6.238;2023-06-14T12:58:05;7.60;;;3.57;;
71048;SDS011;58704;53.358;-6.238;2023-06-14T13:00:30;7.82;;;3.42;;
71048;SDS011;58704;53.358;-6.238;2023-06-14T13:02:56;8.70;;;3.77;;
71048;SDS011;58704;53.358;-6.238;2023-06-14T13:05:22;7.45;;;3.67;;
71048;SDS011;58704;53.358;-6.238;2023-06-14T13:07:47;9.07;;;4.00;;
71048;SDS011;58704;53.358;-6.238;2023-06-14T13:10:13;8.20;;;3.33;;
71048;SDS011;58704;53.358;-6.238;2023-06-14T13:12:38;9.93;;;3.93;;
71048;SDS011;58704;53.358;-6.238;2023-06-14T13:15:04;10.03;;;3.63;;
71048;SDS011;58704;53.358;-6.238;2023-06-14T13:17:29;9.02;;;3.75;;
71048;SDS011;58704;53.358;-6.238;2023-06-14T13:19:58;7.75;;;3.63;;
71048;SDS011;58704;53.358;-6.238;2023-06-14T13:22:23;8.17;;;3.63;;
71048;SDS011;58704;53.358;-6.238;2023-06-14T13:24:48;6.33;;;4.03;;
71048;SDS011;58704;53.358;-6.238;2023-06-14T13:27:14;9.10;;;3.40;;
71048;SDS011;58704;53.358;-6.238;2023-06-14T13:29:40;12.82;;;3.72;;
71048;SDS011;58704;53.358;-6.238;2023-06-14T13:32:05;10.00;;;3.87;;
71048;SDS011;58704;53.358;-6.238;2023-06-14T13:34:31;8.18;;;3.47;;
71048;SDS011;58704;53.358;-6.238;2023-06-14T13:36:57;13.27;;;3.63;;
71048;SDS011;58704;53.358;-6.238;2023-06-14T13:39:24;8.67;;;3.43;;
71048;SDS011;58704;53.358;-6.238;2023-06-14T13:41:50;16.02;;;4.03;;
71048;SDS011;58704;53.358;-6.238;2023-06-14T13:44:15;9.07;;;3.50;;
71048;SDS011;58704;53.358;-6.238;2023-06-14T13:46:43;9.90;;;3.90;;
71048;SDS011;58704;53.358;-6.238;2023-06-14T13:49:09;9.93;;;3.63;;
71048;SDS011;58704;53.358;-6.238;2023-06-14T13:51:35;10.27;;;4.00;;
71048;SDS011;58704;53.358;-6.238;2023-06-14T13:54:00;10.33;;;4.20;;
71048;SDS011;58704;53.358;-6.238;2023-06-14T13:56:26;10.03;;;3.73;;
71048;SDS011;58704;53.358;-6.238;2023-06-14T13:58:51;7.70;;;3.88;;
71048;SDS011;58704;53.358;-6.238;2023-06-14T14:01:17;11.37;;;3.87;;
71048;SDS011;58704;53.358;-6.238;2023-06-14T14:03:45;7.57;;;3.50;;
71048;SDS011;58704;53.358;-6.238;2023-06-14T14:06:11;7.10;;;3.40;;
71048;SDS011;58704;53.358;-6.238;2023-06-14T14:08:37;8.70;;;3.90;;
71048;SDS011;58704;53.358;-6.238;2023-06-14T14:11:02;10.40;;;4.27;;
71048;SDS011;58704;53.358;-6.238;2023-06-14T14:13:28;10.33;;;4.03;;
71048;SDS011;58704;53.358;-6.238;2023-06-14T14:15:53;7.67;;;3.40;;
71048;SDS011;58704;53.358;-6.238;2023-06-14T14:18:19;8.17;;;3.23;;
71048;SDS011;58704;53.358;-6.238;2023-06-14T14:20:46;11.55;;;3.67;;
71048;SDS011;58704;53.358;-6.238;2023-06-14T14:23:11;12.47;;;3.50;;
71048;SDS011;58704;53.358;-6.238;2023-06-14T14:25:37;11.23;;;3.77;;
71048;SDS011;58704;53.358;-6.238;2023-06-14T14:28:02;14.68;;;3.97;;
71048;SDS011;58704;53.358;-6.238;2023-06-14T14:30:27;9.67;;;3.17;;
71048;SDS011;58704;53.358;-6.238;2023-06-14T14:32:54;6.97;;;3.50;;
71048;SDS011;58704;53.358;-6.238;2023-06-14T14:35:19;13.17;;;4.00;;
71048;SDS011;58704;53.358;-6.238;2023-06-14T14:37:44;8.13;;;3.63;;
71048;SDS011;58704;53.358;-6.238;2023-06-14T14:40:10;11.23;;;4.55;;
71048;SDS011;58704;53.358;-6.238;2023-06-14T14:42:36;8.90;;;4.03;;
71048;SDS011;58704;53.358;-6.238;2023-06-14T14:45:02;7.00;;;3.65;;